sensor_id;sensor_type;location;lat;lon;timestamp;P1;durP1;ratioP1;P2;durP2;ratioP2
60700;SDS011;46541;49.894;10.886;2022-07-23T00:00:16;9.20;;;6.20;;
60700;SDS011;46541;49.894;10.886;2022-07-23T00:02:43;10.35;;;5.75;;
60700;SDS011;46541;49.894;10.886;2022-07-23T00:05:11;10.10;;;5.82;;
60700;SDS011;46541;49.894;10.886;2022-07-23T00:07:37;10.52;;;7.15;;
60700;SDS011;46541;49.894;10.886;2022-07-23T00:10:04;9.10;;;6.45;;
60700;SDS011;46541;49.894;10.886;2022-07-23T00:12:32;9.73;;;5.82;;
60700;SDS011;46541;49.894;10.886;2022-07-23T00:14:59;10.40;;;6.10;;
60700;SDS011;46541;49.894;10.886;2022-07-23T00:17:26;13.15;;;6.53;;
60700;SDS011;46541;49.894;10.886;2022-07-23T00:19:53;8.60;;;5.90;;
60700;SDS011;46541;49.894;10.886;2022-07-23T00:22:20;10.60;;;6.10;;
60700;SDS011;46541;49.894;10.886;2022-07-23T00:24:47;6.38;;;5.78;;
60700;SDS011;46541;49.894;10.886;2022-07-23T00:27:33;7.93;;;6.35;;
60700;SDS011;46541;49.894;10.886;2022-07-23T00:30:00;7.38;;;5.93;;
60700;SDS011;46541;49.894;10.886;2022-07-23T00:32:27;12.45;;;5.82;;
60700;SDS011;46541;49.894;10.886;2022-07-23T00:35:14;9.02;;;5.90;;
60700;SDS011;46541;49.894;10.886;2022-07-23T00:37:41;8.00;;;5.78;;
60700;SDS011;46541;49.894;10.886;2022-07-23T00:40:08;8.65;;;6.25;;
60700;SDS011;46541;49.894;10.886;2022-07-23T00:42:36;6.65;;;5.93;;
60700;SDS011;46541;49.894;10.886;2022-07-23T00:45:03;10.65;;;6.45;;
60700;SDS011;46541;49.894;10.886;2022-07-23T00:47:30;10.50;;;6.05;;
60700;SDS011;46541;49.894;10.886;2022-07-23T00:49:57;6.65;;;5.93;;
60700;SDS011;46541;49.894;10.886;2022-07-23T00:52:24;8.63;;;6.35;;
60700;SDS011;46541;49.894;10.886;2022-07-23T00:54:51;9.90;;;5.68;;
60700;SDS011;46541;49.894;10.886;2022-07-23T00:57:18;9.25;;;6.03;;
60700;SDS011;46541;49.894;10.886;2022-07-23T00:59:52;12.43;;;6.03;;
60700;SDS011;46541;49.894;10.886;2022-07-23T01:02:18;8.98;;;5.65;;
60700;SDS011;46541;49.894;10.886;2022-07-23T01:04:45;6.93;;;5.90;;
60700;SDS011;46541;49.894;10.886;2022-07-23T01:07:12;8.20;;;5.55;;
60700;SDS011;46541;49.894;10.886;2022-07-23T01:09:39;10.68;;;6.45;;
60700;SDS011;46541;49.894;10.886;2022-07-23T01:12:06;9.95;;;7.50;;
60700;SDS011;46541;49.894;10.886;2022-07-23T01:14:34;14.55;;;7.60;;
60700;SDS011;46541;49.894;10.886;2022-07-23T01:17:00;13.00;;;7.82;;
60700;SDS011;46541;49.894;10.886;2022-07-23T01:19:27;12.43;;;6.75;;
60700;SDS011;46541;49.894;10.886;2022-07-23T01:21:54;10.27;;;7.07;;
60700;SDS011;46541;49.894;10.886;2022-07-23T01:24:23;9.80;;;6.35;;
60700;SDS011;46541;49.894;10.886;2022-07-23T01:26:50;12.23;;;6.57;;
60700;SDS011;46541;49.894;10.886;2022-07-23T01:29:17;7.63;;;5.75;;
60700;SDS011;46541;49.894;10.886;2022-07-23T01:31:45;8.98;;;5.30;;
60700;SDS011;46541;49.894;10.886;2022-07-23T01:34:12;11.35;;;6.57;;
60700;SDS011;46541;49.894;10.886;2022-07-23T01:36:39;9.88;;;6.45;;
60700;SDS011;46541;49.894;10.886;2022-07-23T01:39:06;6.90;;;5.63;;
60700;SDS011;46541;49.894;10.886;2022-07-23T01:41:34;8.23;;;5.95;;
60700;SDS011;46541;49.894;10.886;2022-07-23T01:44:01;10.32;;;6.70;;
60700;SDS011;46541;49.894;10.886;2022-07-23T01:46:28;10.13;;;6.90;;
60700;SDS011;46541;49.894;10.886;2022-07-23T01:48:54;13.63;;;8.10;;
60700;SDS011;46541;49.894;10.886;2022-07-23T01:51:21;9.05;;;6.07;;
60700;SDS011;46541;49.894;10.886;2022-07-23T01:53:48;9.80;;;6.72;;
60700;SDS011;46541;49.894;10.886;2022-07-23T01:56:15;13.82;;;6.93;;
60700;SDS011;46541;49.894;10.886;2022-07-23T01:58:42;12.75;;;7.50;;
60700;SDS011;46541;49.894;10.886;2022-07-23T02:01:09;14.40;;;6.95;;
60700;SDS011;46541;49.894;10.886;2022-07-23T02:03:36;11.55;;;6.97;;
60700;SDS011;46541;49.894;10.886;2022-07-23T02:06:02;11.43;;;6.63;;
60700;SDS011;46541;49.894;10.886;2022-07-23T02:08:29;9.82;;;6.50;;
60700;SDS011;46541;49.894;10.886;2022-07-23T02:10:56;8.80;;;6.20;;
60700;SDS011;46541;49.894;10.886;2022-07-23T02:13:23;12.95;;;7.30;;
60700;SDS011;46541;49.894;10.886;2022-07-23T02:15:49;12.23;;;6.78;;
60700;SDS011;46541;49.894;10.886;2022-07-23T02:18:16;14.93;;;7.25;;
60700;SDS011;46541;49.894;10.886;2022-07-23T02:20:43;11.10;;;6.50;;
60700;SDS011;46541;49.894;10.886;2022-07-23T02:23:10;13.07;;;6.65;;
60700;SDS011;46541;49.894;10.886;2022-07-23T02:25:37;9.90;;;6.57;;
60700;SDS011;46541;49.894;10.886;2022-07-23T02:28:04;12.38;;;6.40;;
60700;SDS011;46541;49.894;10.886;2022-07-23T02:30:31;9.90;;;6.90;;
60700;SDS011;46541;49.894;10.886;2022-07-23T02:32:58;7.85;;;6.13;;
60700;SDS011;46541;49.894;10.886;2022-07-23T02:35:25;13.23;;;6.47;;
60700;SDS011;46541;49.894;10.886;2022-07-23T02:37:51;9.48;;;6.18;;
60700;SDS011;46541;49.894;10.886;2022-07-23T02:40:18;10.50;;;6.50;;
60700;SDS011;46541;49.894;10.886;2022-07-23T02:42:46;10.40;;;6.28;;
60700;SDS011;46541;49.894;10.886;2022-07-23T02:45:12;7.68;;;6.70;;
60700;SDS011;46541;49.894;10.886;2022-07-23T02:47:39;9.00;;;5.88;;
60700;SDS011;46541;49.894;10.886;2022-07-23T02:50:06;6.18;;;5.30;;
60700;SDS011;46541;49.894;10.886;2022-07-23T02:52:33;8.27;;;5.75;;
60700;SDS011;46541;49.894;10.886;2022-07-23T02:55:00;10.05;;;5.47;;
60700;SDS011;46541;49.894;10.886;2022-07-23T02:57:27;7.05;;;5.30;;
60700;SDS011;46541;49.894;10.886;2022-07-23T02:59:54;6.85;;;5.45;;
60700;SDS011;46541;49.894;10.886;2022-07-23T03:02:21;10.07;;;5.97;;
60700;SDS011;46541;49.894;10.886;2022-07-23T03:04:47;8.15;;;6.55;;
60700;SDS011;46541;49.894;10.886;2022-07-23T03:07:15;8.18;;;6.53;;
60700;SDS011;46541;49.894;10.886;2022-07-23T03:09:43;10.25;;;7.13;;
60700;SDS011;46541;49.894;10.886;2022-07-23T03:12:10;9.57;;;7.47;;
60700;SDS011;46541;49.894;10.886;2022-07-23T03:14:39;11.50;;;7.30;;
60700;SDS011;46541;49.894;10.886;2022-07-23T03:17:07;13.13;;;7.72;;
60700;SDS011;46541;49.894;10.886;2022-07-23T03:19:34;14.98;;;8.73;;
60700;SDS011;46541;49.894;10.886;2022-07-23T03:22:01;10.30;;;7.38;;
60700;SDS011;46541;49.894;10.886;2022-07-23T03:24:28;11.40;;;7.63;;
60700;SDS011;46541;49.894;10.886;2022-07-23T03:27:20;9.73;;;7.03;;
60700;SDS011;46541;49.894;10.886;2022-07-23T03:29:48;10.15;;;8.00;;
60700;SDS011;46541;49.894;10.886;2022-07-23T03:32:16;9.23;;;7.30;;
60700;SDS011;46541;49.894;10.886;2022-07-23T03:34:43;9.10;;;7.80;;
60700;SDS011;46541;49.894;10.886;2022-07-23T03:37:09;10.10;;;7.55;;
60700;SDS011;46541;49.894;10.886;2022-07-23T03:39:36;10.32;;;8.20;;
60700;SDS011;46541;49.894;10.886;2022-07-23T03:42:03;12.93;;;9.07;;
60700;SDS011;46541;49.894;10.886;2022-07-23T03:44:30;10.38;;;7.65;;
60700;SDS011;46541;49.894;10.886;2022-07-23T03:46:57;9.63;;;8.13;;
60700;SDS011;46541;49.894;10.886;2022-07-23T03:49:24;11.05;;;7.20;;
60700;SDS011;46541;49.894;10.886;2022-07-23T03:51:51;10.10;;;7.95;;
60700;SDS011;46541;49.894;10.886;2022-07-23T03:54:18;10.15;;;7.22;;
60700;SDS011;46541;49.894;10.886;2022-07-23T03:56:45;10.07;;;7.55;;
60700;SDS011;46541;49.894;10.886;2022-07-23T03:59:12;12.48;;;8.15;;
60700;SDS011;46541;49.894;10.886;2022-07-23T04:01:39;12.80;;;8.60;;
60700;SDS011;46541;49.894;10.886;2022-07-23T04:04:06;11.70;;;7.60;;
60700;SDS011;46541;49.894;10.886;2022-07-23T04:06:34;10.40;;;8.20;;
60700;SDS011;46541;49.894;10.886;2022-07-23T04:09:02;11.32;;;7.00;;
60700;SDS011;46541;49.894;10.886;2022-07-23T04:11:30;15.50;;;9.27;;
60700;SDS011;46541;49.894;10.886;2022-07-23T04:13:57;11.15;;;8.15;;
60700;SDS011;46541;49.894;10.886;2022-07-23T04:16:24;11.60;;;8.10;;
60700;SDS011;46541;49.894;10.886;2022-07-23T04:18:51;10.48;;;7.60;;
60700;SDS011;46541;49.894;10.886;2022-07-23T04:21:17;11.25;;;9.93;;
60700;SDS011;46541;49.894;10.886;2022-07-23T04:23:44;13.50;;;7.93;;
60700;SDS011;46541;49.894;10.886;2022-07-23T04:26:11;14.93;;;9.05;;
60700;SDS011;46541;49.894;10.886;2022-07-23T04:28:43;11.73;;;7.97;;
60700;SDS011;46541;49.894;10.886;2022-07-23T04:31:10;14.68;;;9.15;;
60700;SDS011;46541;49.894;10.886;2022-07-23T04:33:37;9.60;;;8.02;;
60700;SDS011;46541;49.894;10.886;2022-07-23T04:36:04;11.45;;;8.57;;
60700;SDS011;46541;49.894;10.886;2022-07-23T04:38:31;11.05;;;7.32;;
60700;SDS011;46541;49.894;10.886;2022-07-23T04:40:58;9.77;;;7.38;;
60700;SDS011;46541;49.894;10.886;2022-07-23T04:43:26;10.07;;;6.63;;
60700;SDS011;46541;49.894;10.886;2022-07-23T04:45:53;9.70;;;7.50;;
60700;SDS011;46541;49.894;10.886;2022-07-23T04:48:21;8.75;;;6.80;;
60700;SDS011;46541;49.894;10.886;2022-07-23T04:50:48;11.00;;;7.50;;
60700;SDS011;46541;49.894;10.886;2022-07-23T04:53:14;14.70;;;8.02;;
60700;SDS011;46541;49.894;10.886;2022-07-23T04:55:41;10.40;;;8.35;;
60700;SDS011;46541;49.894;10.886;2022-07-23T04:58:08;10.73;;;7.43;;
60700;SDS011;46541;49.894;10.886;2022-07-23T05:00:35;9.50;;;7.60;;
60700;SDS011;46541;49.894;10.886;2022-07-23T05:03:02;8.82;;;7.93;;
60700;SDS011;46541;49.894;10.886;2022-07-23T05:05:29;10.07;;;7.75;;
60700;SDS011;46541;49.894;10.886;2022-07-23T05:07:56;11.38;;;8.10;;
60700;SDS011;46541;49.894;10.886;2022-07-23T05:10:22;14.05;;;7.70;;
60700;SDS011;46541;49.894;10.886;2022-07-23T05:12:52;10.25;;;7.38;;
60700;SDS011;46541;49.894;10.886;2022-07-23T05:15:19;13.43;;;8.07;;
60700;SDS011;46541;49.894;10.886;2022-07-23T05:17:45;9.35;;;7.40;;
60700;SDS011;46541;49.894;10.886;2022-07-23T05:20:13;8.32;;;7.43;;
60700;SDS011;46541;49.894;10.886;2022-07-23T05:22:40;13.63;;;8.20;;
60700;SDS011;46541;49.894;10.886;2022-07-23T05:25:08;10.18;;;7.82;;
60700;SDS011;46541;49.894;10.886;2022-07-23T05:27:34;12.05;;;7.78;;
60700;SDS011;46541;49.894;10.886;2022-07-23T05:30:02;10.82;;;7.80;;
60700;SDS011;46541;49.894;10.886;2022-07-23T05:32:30;9.15;;;8.00;;
60700;SDS011;46541;49.894;10.886;2022-07-23T05:34:58;12.73;;;7.60;;
60700;SDS011;46541;49.894;10.886;2022-07-23T05:37:25;12.00;;;8.57;;
60700;SDS011;46541;49.894;10.886;2022-07-23T05:39:52;10.38;;;7.57;;
60700;SDS011;46541;49.894;10.886;2022-07-23T05:42:18;11.10;;;8.13;;
60700;SDS011;46541;49.894;10.886;2022-07-23T05:44:45;8.63;;;7.35;;
60700;SDS011;46541;49.894;10.886;2022-07-23T05:47:12;11.18;;;8.18;;
60700;SDS011;46541;49.894;10.886;2022-07-23T05:49:39;11.05;;;7.50;;
60700;SDS011;46541;49.894;10.886;2022-07-23T05:52:05;10.52;;;8.30;;
60700;SDS011;46541;49.894;10.886;2022-07-23T05:54:36;11.07;;;8.43;;
60700;SDS011;46541;49.894;10.886;2022-07-23T05:57:03;10.65;;;7.18;;
60700;SDS011;46541;49.894;10.886;2022-07-23T05:59:30;11.95;;;7.88;;
60700;SDS011;46541;49.894;10.886;2022-07-23T06:01:57;10.63;;;7.63;;
60700;SDS011;46541;49.894;10.886;2022-07-23T06:04:24;10.45;;;7.43;;
60700;SDS011;46541;49.894;10.886;2022-07-23T06:06:51;9.73;;;8.02;;
60700;SDS011;46541;49.894;10.886;2022-07-23T06:09:18;12.25;;;9.18;;
60700;SDS011;46541;49.894;10.886;2022-07-23T06:11:45;14.57;;;9.70;;
60700;SDS011;46541;49.894;10.886;2022-07-23T06:14:12;9.90;;;7.72;;
60700;SDS011;46541;49.894;10.886;2022-07-23T06:16:38;11.15;;;8.32;;
60700;SDS011;46541;49.894;10.886;2022-07-23T06:19:05;11.43;;;8.93;;
60700;SDS011;46541;49.894;10.886;2022-07-23T06:21:32;10.05;;;8.65;;
60700;SDS011;46541;49.894;10.886;2022-07-23T06:24:14;11.48;;;8.40;;
60700;SDS011;46541;49.894;10.886;2022-07-23T06:26:41;10.48;;;8.18;;
60700;SDS011;46541;49.894;10.886;2022-07-23T06:29:08;10.43;;;8.55;;
60700;SDS011;46541;49.894;10.886;2022-07-23T06:31:35;12.90;;;7.63;;
60700;SDS011;46541;49.894;10.886;2022-07-23T06:34:02;10.80;;;8.20;;
60700;SDS011;46541;49.894;10.886;2022-07-23T06:36:29;8.07;;;7.28;;
60700;SDS011;46541;49.894;10.886;2022-07-23T06:38:56;8.05;;;7.25;;
60700;SDS011;46541;49.894;10.886;2022-07-23T06:41:23;8.15;;;7.28;;
60700;SDS011;46541;49.894;10.886;2022-07-23T06:43:50;8.68;;;6.93;;
60700;SDS011;46541;49.894;10.886;2022-07-23T06:46:17;14.98;;;7.80;;
60700;SDS011;46541;49.894;10.886;2022-07-23T06:48:43;11.85;;;6.57;;
60700;SDS011;46541;49.894;10.886;2022-07-23T06:51:10;9.45;;;7.47;;
60700;SDS011;46541;49.894;10.886;2022-07-23T06:53:37;9.65;;;7.05;;
60700;SDS011;46541;49.894;10.886;2022-07-23T06:56:04;7.80;;;7.03;;
60700;SDS011;46541;49.894;10.886;2022-07-23T06:58:31;9.60;;;7.70;;
60700;SDS011;46541;49.894;10.886;2022-07-23T07:00:58;11.57;;;7.15;;
60700;SDS011;46541;49.894;10.886;2022-07-23T07:03:24;8.07;;;6.70;;
60700;SDS011;46541;49.894;10.886;2022-07-23T07:05:51;12.13;;;7.43;;
60700;SDS011;46541;49.894;10.886;2022-07-23T07:08:19;9.57;;;6.97;;
60700;SDS011;46541;49.894;10.886;2022-07-23T07:10:46;11.85;;;6.45;;
60700;SDS011;46541;49.894;10.886;2022-07-23T07:13:12;10.65;;;6.80;;
60700;SDS011;46541;49.894;10.886;2022-07-23T07:15:39;7.85;;;7.05;;
60700;SDS011;46541;49.894;10.886;2022-07-23T07:18:06;7.90;;;6.18;;
60700;SDS011;46541;49.894;10.886;2022-07-23T07:20:33;11.55;;;7.00;;
60700;SDS011;46541;49.894;10.886;2022-07-23T07:23:00;9.07;;;6.95;;
60700;SDS011;46541;49.894;10.886;2022-07-23T07:25:27;9.63;;;6.40;;
60700;SDS011;46541;49.894;10.886;2022-07-23T07:27:54;6.78;;;6.18;;
60700;SDS011;46541;49.894;10.886;2022-07-23T07:30:20;7.82;;;5.60;;
60700;SDS011;46541;49.894;10.886;2022-07-23T07:32:47;8.43;;;5.72;;
60700;SDS011;46541;49.894;10.886;2022-07-23T07:35:23;5.70;;;5.10;;
60700;SDS011;46541;49.894;10.886;2022-07-23T07:37:50;6.43;;;4.90;;
60700;SDS011;46541;49.894;10.886;2022-07-23T07:40:17;6.72;;;4.57;;
60700;SDS011;46541;49.894;10.886;2022-07-23T07:42:48;9.77;;;5.70;;
60700;SDS011;46541;49.894;10.886;2022-07-23T07:45:17;5.97;;;5.38;;
60700;SDS011;46541;49.894;10.886;2022-07-23T07:47:47;6.85;;;4.57;;
60700;SDS011;46541;49.894;10.886;2022-07-23T07:50:14;7.22;;;4.80;;
60700;SDS011;46541;49.894;10.886;2022-07-23T07:52:41;6.20;;;5.00;;
60700;SDS011;46541;49.894;10.886;2022-07-23T07:55:09;5.43;;;4.60;;
60700;SDS011;46541;49.894;10.886;2022-07-23T07:57:36;5.93;;;5.13;;
60700;SDS011;46541;49.894;10.886;2022-07-23T08:00:07;7.38;;;5.30;;
60700;SDS011;46541;49.894;10.886;2022-07-23T08:02:46;6.60;;;4.38;;
60700;SDS011;46541;49.894;10.886;2022-07-23T08:05:18;7.78;;;4.20;;
60700;SDS011;46541;49.894;10.886;2022-07-23T08:07:53;8.63;;;4.60;;
60700;SDS011;46541;49.894;10.886;2022-07-23T08:10:20;6.45;;;5.18;;
60700;SDS011;46541;49.894;10.886;2022-07-23T08:12:51;7.05;;;4.85;;
60700;SDS011;46541;49.894;10.886;2022-07-23T08:15:20;6.15;;;5.00;;
60700;SDS011;46541;49.894;10.886;2022-07-23T08:17:48;6.72;;;5.30;;
60700;SDS011;46541;49.894;10.886;2022-07-23T08:20:16;7.95;;;5.22;;
60700;SDS011;46541;49.894;10.886;2022-07-23T08:23:03;9.10;;;5.20;;
60700;SDS011;46541;49.894;10.886;2022-07-23T08:25:32;9.88;;;5.20;;
60700;SDS011;46541;49.894;10.886;2022-07-23T08:28:04;6.28;;;5.30;;
60700;SDS011;46541;49.894;10.886;2022-07-23T08:30:33;5.82;;;5.22;;
60700;SDS011;46541;49.894;10.886;2022-07-23T08:33:03;7.00;;;5.10;;
60700;SDS011;46541;49.894;10.886;2022-07-23T08:35:33;10.02;;;5.63;;
60700;SDS011;46541;49.894;10.886;2022-07-23T08:38:03;5.85;;;5.03;;
60700;SDS011;46541;49.894;10.886;2022-07-23T08:40:33;7.63;;;5.30;;
60700;SDS011;46541;49.894;10.886;2022-07-23T08:43:09;9.07;;;5.25;;
60700;SDS011;46541;49.894;10.886;2022-07-23T08:45:42;8.20;;;6.82;;
60700;SDS011;46541;49.894;10.886;2022-07-23T08:48:20;6.35;;;5.75;;
60700;SDS011;46541;49.894;10.886;2022-07-23T08:50:50;6.30;;;5.18;;
60700;SDS011;46541;49.894;10.886;2022-07-23T08:53:18;7.63;;;5.75;;
60700;SDS011;46541;49.894;10.886;2022-07-23T08:55:47;10.10;;;5.35;;
60700;SDS011;46541;49.894;10.886;2022-07-23T08:58:16;7.20;;;5.05;;
60700;SDS011;46541;49.894;10.886;2022-07-23T09:00:47;6.82;;;5.38;;
60700;SDS011;46541;49.894;10.886;2022-07-23T09:03:18;8.80;;;5.25;;
60700;SDS011;46541;49.894;10.886;2022-07-23T09:05:47;6.15;;;5.28;;
60700;SDS011;46541;49.894;10.886;2022-07-23T09:08:17;7.38;;;5.35;;
60700;SDS011;46541;49.894;10.886;2022-07-23T09:13:26;8.30;;;6.10;;
60700;SDS011;46541;49.894;10.886;2022-07-23T09:16:15;8.77;;;5.47;;
60700;SDS011;46541;49.894;10.886;2022-07-23T09:18:45;10.50;;;5.82;;
60700;SDS011;46541;49.894;10.886;2022-07-23T09:21:16;13.10;;;6.38;;
60700;SDS011;46541;49.894;10.886;2022-07-23T09:23:47;8.40;;;6.20;;
60700;SDS011;46541;49.894;10.886;2022-07-23T09:26:35;7.85;;;6.13;;
60700;SDS011;46541;49.894;10.886;2022-07-23T09:36:53;11.82;;;8.85;;
60700;SDS011;46541;49.894;10.886;2022-07-23T09:39:26;9.20;;;6.72;;
60700;SDS011;46541;49.894;10.886;2022-07-23T09:42:19;11.70;;;7.80;;
60700;SDS011;46541;49.894;10.886;2022-07-23T09:44:51;10.65;;;7.65;;
60700;SDS011;46541;49.894;10.886;2022-07-23T09:47:23;8.18;;;6.90;;
60700;SDS011;46541;49.894;10.886;2022-07-23T09:52:47;11.77;;;6.68;;
60700;SDS011;46541;49.894;10.886;2022-07-23T09:55:16;9.48;;;7.30;;
60700;SDS011;46541;49.894;10.886;2022-07-23T09:57:44;11.85;;;7.15;;
60700;SDS011;46541;49.894;10.886;2022-07-23T10:00:12;9.45;;;6.93;;
60700;SDS011;46541;49.894;10.886;2022-07-23T10:02:39;8.27;;;6.40;;
60700;SDS011;46541;49.894;10.886;2022-07-23T10:05:06;7.13;;;6.43;;
60700;SDS011;46541;49.894;10.886;2022-07-23T10:07:35;12.65;;;6.72;;
60700;SDS011;46541;49.894;10.886;2022-07-23T10:10:05;10.23;;;5.97;;
60700;SDS011;46541;49.894;10.886;2022-07-23T10:12:33;7.65;;;6.90;;
60700;SDS011;46541;49.894;10.886;2022-07-23T10:15:05;12.32;;;7.22;;
60700;SDS011;46541;49.894;10.886;2022-07-23T10:17:33;6.60;;;5.85;;
60700;SDS011;46541;49.894;10.886;2022-07-23T10:20:00;10.77;;;6.10;;
60700;SDS011;46541;49.894;10.886;2022-07-23T10:36:12;6.88;;;6.28;;
60700;SDS011;46541;49.894;10.886;2022-07-23T10:46:53;9.20;;;8.30;;
60700;SDS011;46541;49.894;10.886;2022-07-23T10:49:31;10.02;;;7.75;;
60700;SDS011;46541;49.894;10.886;2022-07-23T10:54:41;8.75;;;6.35;;
60700;SDS011;46541;49.894;10.886;2022-07-23T10:57:13;7.63;;;6.90;;
60700;SDS011;46541;49.894;10.886;2022-07-23T11:02:35;9.63;;;7.95;;
60700;SDS011;46541;49.894;10.886;2022-07-23T11:07:31;11.40;;;7.03;;
60700;SDS011;46541;49.894;10.886;2022-07-23T11:09:58;10.13;;;7.30;;
60700;SDS011;46541;49.894;10.886;2022-07-23T11:17:27;9.18;;;7.22;;
60700;SDS011;46541;49.894;10.886;2022-07-23T11:25:11;7.88;;;6.68;;
60700;SDS011;46541;49.894;10.886;2022-07-23T11:30:09;8.70;;;7.15;;
60700;SDS011;46541;49.894;10.886;2022-07-23T11:35:42;8.45;;;6.80;;
60700;SDS011;46541;49.894;10.886;2022-07-23T11:38:30;12.10;;;6.97;;
60700;SDS011;46541;49.894;10.886;2022-07-23T11:40:58;8.85;;;6.22;;
60700;SDS011;46541;49.894;10.886;2022-07-23T11:43:25;11.52;;;6.88;;
60700;SDS011;46541;49.894;10.886;2022-07-23T11:45:53;8.15;;;7.18;;
60700;SDS011;46541;49.894;10.886;2022-07-23T11:48:25;7.63;;;6.80;;
60700;SDS011;46541;49.894;10.886;2022-07-23T11:50:54;9.80;;;6.65;;
60700;SDS011;46541;49.894;10.886;2022-07-23T11:53:26;11.23;;;6.55;;
60700;SDS011;46541;49.894;10.886;2022-07-23T11:56:06;7.13;;;6.10;;
60700;SDS011;46541;49.894;10.886;2022-07-23T11:58:35;10.32;;;7.00;;
60700;SDS011;46541;49.894;10.886;2022-07-23T12:01:03;8.85;;;6.13;;
60700;SDS011;46541;49.894;10.886;2022-07-23T12:03:30;11.32;;;7.35;;
60700;SDS011;46541;49.894;10.886;2022-07-23T12:05:58;6.97;;;6.22;;
60700;SDS011;46541;49.894;10.886;2022-07-23T12:08:26;8.90;;;5.82;;
60700;SDS011;46541;49.894;10.886;2022-07-23T12:10:53;8.05;;;6.35;;
60700;SDS011;46541;49.894;10.886;2022-07-23T12:13:20;7.60;;;6.35;;
60700;SDS011;46541;49.894;10.886;2022-07-23T12:15:49;10.48;;;6.70;;
60700;SDS011;46541;49.894;10.886;2022-07-23T12:18:22;12.32;;;8.70;;
60700;SDS011;46541;49.894;10.886;2022-07-23T12:20:51;7.53;;;6.53;;
60700;SDS011;46541;49.894;10.886;2022-07-23T12:23:25;10.60;;;6.93;;
60700;SDS011;46541;49.894;10.886;2022-07-23T12:25:53;9.02;;;7.10;;
60700;SDS011;46541;49.894;10.886;2022-07-23T12:30:55;7.07;;;6.28;;
60700;SDS011;46541;49.894;10.886;2022-07-23T12:35:54;7.22;;;5.95;;
60700;SDS011;46541;49.894;10.886;2022-07-23T12:38:26;7.13;;;6.38;;
60700;SDS011;46541;49.894;10.886;2022-07-23T12:43:30;6.30;;;5.68;;
60700;SDS011;46541;49.894;10.886;2022-07-23T12:51:17;8.93;;;5.53;;
60700;SDS011;46541;49.894;10.886;2022-07-23T12:56:20;6.70;;;5.82;;
60700;SDS011;46541;49.894;10.886;2022-07-23T12:58:56;7.70;;;6.55;;
60700;SDS011;46541;49.894;10.886;2022-07-23T13:01:34;7.60;;;5.82;;
60700;SDS011;46541;49.894;10.886;2022-07-23T13:06:40;9.23;;;7.00;;
60700;SDS011;46541;49.894;10.886;2022-07-23T13:09:10;8.40;;;5.38;;
60700;SDS011;46541;49.894;10.886;2022-07-23T13:11:40;6.30;;;5.40;;
60700;SDS011;46541;49.894;10.886;2022-07-23T13:14:09;7.38;;;5.97;;
60700;SDS011;46541;49.894;10.886;2022-07-23T13:16:37;6.60;;;5.97;;
60700;SDS011;46541;49.894;10.886;2022-07-23T13:19:05;6.93;;;5.53;;
60700;SDS011;46541;49.894;10.886;2022-07-23T13:21:37;7.50;;;4.80;;
60700;SDS011;46541;49.894;10.886;2022-07-23T13:24:04;7.10;;;5.47;;
60700;SDS011;46541;49.894;10.886;2022-07-23T13:26:34;6.80;;;4.55;;
60700;SDS011;46541;49.894;10.886;2022-07-23T13:29:03;6.28;;;4.97;;
60700;SDS011;46541;49.894;10.886;2022-07-23T13:31:50;7.43;;;4.80;;
60700;SDS011;46541;49.894;10.886;2022-07-23T13:34:17;9.15;;;5.60;;
60700;SDS011;46541;49.894;10.886;2022-07-23T13:36:45;7.18;;;5.47;;
60700;SDS011;46541;49.894;10.886;2022-07-23T13:39:12;5.68;;;5.05;;
60700;SDS011;46541;49.894;10.886;2022-07-23T13:41:39;6.32;;;5.57;;
60700;SDS011;46541;49.894;10.886;2022-07-23T13:46:41;8.27;;;5.18;;
60700;SDS011;46541;49.894;10.886;2022-07-23T13:49:08;9.18;;;5.35;;
60700;SDS011;46541;49.894;10.886;2022-07-23T13:51:36;7.40;;;5.47;;
60700;SDS011;46541;49.894;10.886;2022-07-23T13:54:03;9.27;;;4.85;;
60700;SDS011;46541;49.894;10.886;2022-07-23T13:56:34;9.00;;;5.55;;
60700;SDS011;46541;49.894;10.886;2022-07-23T13:59:02;6.53;;;5.63;;
60700;SDS011;46541;49.894;10.886;2022-07-23T14:01:32;5.85;;;4.65;;
60700;SDS011;46541;49.894;10.886;2022-07-23T14:04:15;5.50;;;4.90;;
60700;SDS011;46541;49.894;10.886;2022-07-23T14:06:43;8.77;;;5.25;;
60700;SDS011;46541;49.894;10.886;2022-07-23T14:09:17;7.20;;;4.50;;
60700;SDS011;46541;49.894;10.886;2022-07-23T14:11:44;9.18;;;4.68;;
60700;SDS011;46541;49.894;10.886;2022-07-23T14:14:11;7.00;;;4.78;;
60700;SDS011;46541;49.894;10.886;2022-07-23T14:16:40;5.47;;;4.85;;
60700;SDS011;46541;49.894;10.886;2022-07-23T14:19:07;6.72;;;5.10;;
60700;SDS011;46541;49.894;10.886;2022-07-23T14:21:34;6.18;;;5.18;;
60700;SDS011;46541;49.894;10.886;2022-07-23T14:24:01;8.15;;;5.20;;
60700;SDS011;46541;49.894;10.886;2022-07-23T14:26:28;5.38;;;4.30;;
60700;SDS011;46541;49.894;10.886;2022-07-23T14:28:55;5.78;;;5.18;;
60700;SDS011;46541;49.894;10.886;2022-07-23T14:31:23;6.63;;;5.35;;
60700;SDS011;46541;49.894;10.886;2022-07-23T14:33:51;4.97;;;4.50;;
60700;SDS011;46541;49.894;10.886;2022-07-23T14:36:19;7.15;;;4.43;;
60700;SDS011;46541;49.894;10.886;2022-07-23T14:38:46;5.68;;;5.10;;
60700;SDS011;46541;49.894;10.886;2022-07-23T14:41:13;8.45;;;5.43;;
60700;SDS011;46541;49.894;10.886;2022-07-23T14:43:41;8.15;;;4.57;;
60700;SDS011;46541;49.894;10.886;2022-07-23T14:46:10;7.95;;;4.95;;
60700;SDS011;46541;49.894;10.886;2022-07-23T14:48:37;9.60;;;5.18;;
60700;SDS011;46541;49.894;10.886;2022-07-23T14:51:05;5.30;;;4.80;;
60700;SDS011;46541;49.894;10.886;2022-07-23T14:53:31;5.72;;;5.07;;
60700;SDS011;46541;49.894;10.886;2022-07-23T14:55:58;6.07;;;5.05;;
60700;SDS011;46541;49.894;10.886;2022-07-23T14:58:25;5.10;;;4.60;;
60700;SDS011;46541;49.894;10.886;2022-07-23T15:00:52;5.65;;;5.10;;
60700;SDS011;46541;49.894;10.886;2022-07-23T15:03:20;7.65;;;5.38;;
60700;SDS011;46541;49.894;10.886;2022-07-23T15:05:47;5.80;;;5.22;;
60700;SDS011;46541;49.894;10.886;2022-07-23T15:08:14;6.38;;;5.30;;
60700;SDS011;46541;49.894;10.886;2022-07-23T15:10:48;6.13;;;5.53;;
60700;SDS011;46541;49.894;10.886;2022-07-23T15:13:14;7.07;;;5.25;;
60700;SDS011;46541;49.894;10.886;2022-07-23T15:15:41;6.20;;;4.68;;
60700;SDS011;46541;49.894;10.886;2022-07-23T15:18:11;6.05;;;5.47;;
60700;SDS011;46541;49.894;10.886;2022-07-23T15:20:42;5.82;;;4.80;;
60700;SDS011;46541;49.894;10.886;2022-07-23T15:23:09;7.38;;;5.13;;
60700;SDS011;46541;49.894;10.886;2022-07-23T15:25:36;6.38;;;5.43;;
60700;SDS011;46541;49.894;10.886;2022-07-23T15:28:05;8.10;;;5.00;;
60700;SDS011;46541;49.894;10.886;2022-07-23T15:30:34;6.78;;;4.65;;
60700;SDS011;46541;49.894;10.886;2022-07-23T15:33:03;8.70;;;4.72;;
60700;SDS011;46541;49.894;10.886;2022-07-23T15:35:32;8.85;;;5.32;;
60700;SDS011;46541;49.894;10.886;2022-07-23T15:37:59;5.90;;;5.10;;
60700;SDS011;46541;49.894;10.886;2022-07-23T15:40:32;8.20;;;4.82;;
60700;SDS011;46541;49.894;10.886;2022-07-23T15:42:59;7.95;;;5.03;;
60700;SDS011;46541;49.894;10.886;2022-07-23T15:45:26;9.75;;;5.78;;
60700;SDS011;46541;49.894;10.886;2022-07-23T15:47:53;9.27;;;5.18;;
60700;SDS011;46541;49.894;10.886;2022-07-23T15:50:21;6.57;;;4.75;;
60700;SDS011;46541;49.894;10.886;2022-07-23T15:52:47;5.15;;;4.65;;
60700;SDS011;46541;49.894;10.886;2022-07-23T15:55:15;5.75;;;4.70;;